createdAt,value
2018-12-14T00:00:26.150Z,1006.70
2018-12-14T00:01:26.165Z,1006.67
2018-12-14T00:02:26.175Z,1006.72
2018-12-14T00:03:26.187Z,1006.72
2018-12-14T00:04:26.200Z,1006.71
2018-12-14T00:05:26.212Z,1006.73
2018-12-14T00:06:26.228Z,1006.71
2018-12-14T00:07:26.249Z,1006.72
2018-12-14T00:08:26.255Z,1006.76
2018-12-14T00:09:26.268Z,1006.80
2018-12-14T00:10:26.279Z,1006.78
2018-12-14T00:11:26.294Z,1006.81
2018-12-14T00:12:26.323Z,1006.78
2018-12-14T00:13:26.321Z,1006.78
2018-12-14T00:14:26.334Z,1006.77
2018-12-14T00:15:26.348Z,1006.80
2018-12-14T00:16:26.381Z,1006.77
2018-12-14T00:17:26.379Z,1006.76
2018-12-14T00:18:26.389Z,1006.76
2018-12-14T00:19:26.401Z,1006.77
2018-12-14T00:20:26.415Z,1006.82
2018-12-14T00:21:26.430Z,1006.76
2018-12-14T00:22:26.458Z,1006.75
2018-12-14T00:23:26.470Z,1006.78
2018-12-14T00:24:26.472Z,1006.78
2018-12-14T00:25:26.484Z,1006.79
2018-12-14T00:26:26.502Z,1006.79
2018-12-14T00:27:26.511Z,1006.78
2018-12-14T00:28:26.533Z,1006.76
2018-12-14T00:29:26.540Z,1006.85
2018-12-14T00:30:26.557Z,1006.79
2018-12-14T00:31:26.563Z,1006.84
2018-12-14T00:32:26.574Z,1006.84
2018-12-14T00:33:26.593Z,1006.87
2018-12-14T00:34:26.612Z,1006.86
2018-12-14T00:35:26.623Z,1006.82
2018-12-14T00:36:26.631Z,1006.86
2018-12-14T00:37:26.639Z,1006.90
2018-12-14T00:38:26.653Z,1006.92
2018-12-14T00:39:26.673Z,1006.92
2018-12-14T00:40:26.687Z,1006.95
2018-12-14T00:41:26.703Z,1006.89
2018-12-14T00:42:26.725Z,1006.92
2018-12-14T00:43:26.727Z,1006.94
2018-12-14T00:44:26.745Z,1006.94
2018-12-14T00:45:26.752Z,1006.94
2018-12-14T00:46:26.777Z,1006.99
2018-12-14T00:47:26.780Z,1007.00
2018-12-14T00:48:26.788Z,1007.00
2018-12-14T00:49:26.809Z,1006.95
2018-12-14T00:50:26.816Z,1007.04
2018-12-14T00:51:26.831Z,1007.02
2018-12-14T00:52:26.875Z,1007.04
2018-12-14T00:53:26.868Z,1007.02
2018-12-14T00:54:26.871Z,1007.02
2018-12-14T00:55:26.882Z,1007.08
2018-12-14T00:56:26.899Z,1007.04
2018-12-14T00:57:26.909Z,1007.08
2018-12-14T00:58:26.939Z,1007.08
2018-12-14T00:59:26.937Z,1007.08
2018-12-14T01:00:27.456Z,1007.08
2018-12-14T01:01:26.961Z,1007.09
2018-12-14T01:02:26.980Z,1007.09
2018-12-14T01:03:26.996Z,1007.09
2018-12-14T01:04:27.012Z,1007.09
2018-12-14T01:05:27.019Z,1007.08
2018-12-14T01:06:27.027Z,1007.10
2018-12-14T01:07:27.042Z,1007.10
2018-12-14T01:08:27.059Z,1007.10
2018-12-14T01:09:27.070Z,1007.09
2018-12-14T01:10:27.084Z,1007.10
2018-12-14T01:11:27.122Z,1007.10
2018-12-14T01:12:27.112Z,1007.11
2018-12-14T01:13:27.129Z,1007.11
2018-12-14T01:14:27.146Z,1007.16
2018-12-14T01:15:27.146Z,1007.16
2018-12-14T01:16:27.158Z,1007.17
2018-12-14T01:17:27.179Z,1007.17
2018-12-14T01:18:27.198Z,1007.18
2018-12-14T01:19:27.210Z,1007.23
2018-12-14T01:20:27.216Z,1007.17
2018-12-14T01:21:27.225Z,1007.24
2018-12-14T01:22:27.243Z,1007.20
2018-12-14T01:23:27.261Z,1007.22
2018-12-14T01:24:27.276Z,1007.25
2018-12-14T01:25:27.287Z,1007.18
2018-12-14T01:26:27.297Z,1007.21
2018-12-14T01:27:27.319Z,1007.21
2018-12-14T01:28:27.331Z,1007.16
2018-12-14T01:29:27.332Z,1007.17
2018-12-14T01:30:27.353Z,1007.19
2018-12-14T01:31:27.366Z,1007.19
2018-12-14T01:32:27.378Z,1007.19
2018-12-14T01:33:27.424Z,1007.23
2018-12-14T01:34:27.401Z,1007.23
2018-12-14T01:35:27.425Z,1007.22
2018-12-14T01:36:27.430Z,1007.19
2018-12-14T01:37:27.438Z,1007.25
2018-12-14T01:38:27.457Z,1007.22
2018-12-14T01:39:27.480Z,1007.16
2018-12-14T01:40:27.485Z,1007.20
2018-12-14T01:41:27.497Z,1007.17
2018-12-14T01:42:27.503Z,1007.16
2018-12-14T01:43:27.524Z,1007.18
2018-12-14T01:44:27.532Z,1007.16
2018-12-14T01:45:27.542Z,1007.16
2018-12-14T01:46:27.560Z,1007.19
2018-12-14T01:47:27.586Z,1007.15
2018-12-14T01:48:27.587Z,1007.13
2018-12-14T01:49:27.600Z,1007.12
2018-12-14T01:50:27.623Z,1007.11
2018-12-14T01:51:27.636Z,1007.15
2018-12-14T01:52:27.658Z,1007.16
2018-12-14T01:53:27.657Z,1007.15
2018-12-14T01:54:27.664Z,1007.13
2018-12-14T01:55:27.741Z,1007.15
2018-12-14T01:56:27.687Z,1007.13
2018-12-14T01:57:27.761Z,1007.14
2018-12-14T01:58:27.721Z,1007.12
2018-12-14T01:59:27.743Z,1007.10
2018-12-14T02:00:27.753Z,1007.07
2018-12-14T02:01:27.779Z,1007.06
2018-12-14T02:02:27.776Z,1007.06
2018-12-14T02:03:27.788Z,1007.05
2018-12-14T02:04:27.799Z,1007.05
2018-12-14T02:05:27.816Z,1007.08
2018-12-14T02:06:27.825Z,1007.11
2018-12-14T02:07:27.844Z,1007.09
2018-12-14T02:08:27.854Z,1007.07
2018-12-14T02:09:27.871Z,1007.10
2018-12-14T02:10:27.875Z,1007.06
2018-12-14T02:11:27.891Z,1007.11
2018-12-14T02:12:27.911Z,1007.13
2018-12-14T02:13:27.918Z,1007.12
2018-12-14T02:14:27.952Z,1007.10
2018-12-14T02:15:27.942Z,1007.12
2018-12-14T02:16:27.960Z,1007.10
2018-12-14T02:17:27.985Z,1007.12
2018-12-14T02:18:27.991Z,1007.06
2018-12-14T02:19:27.994Z,1007.08
2018-12-14T02:20:28.010Z,1007.09
2018-12-14T02:21:28.049Z,1007.10
2018-12-14T02:22:28.048Z,1007.11
2018-12-14T02:23:28.060Z,1007.02
2018-12-14T02:24:28.060Z,1007.03
2018-12-14T02:25:28.126Z,1007.05
2018-12-14T02:26:28.088Z,1007.07
2018-12-14T02:27:28.106Z,1007.12
2018-12-14T02:28:28.125Z,1007.09
2018-12-14T02:29:28.136Z,1007.13
2018-12-14T02:30:28.152Z,1007.17
2018-12-14T02:31:28.164Z,1007.18
2018-12-14T02:32:28.182Z,1007.12
2018-12-14T02:33:28.185Z,1007.09
2018-12-14T02:34:28.208Z,1007.09
2018-12-14T02:35:28.220Z,1007.09
2018-12-14T02:36:28.222Z,1007.09
2018-12-14T02:37:28.266Z,1007.11
2018-12-14T02:38:28.255Z,1007.10
2018-12-14T02:39:28.277Z,1007.09
2018-12-14T02:40:28.287Z,1007.06
2018-12-14T02:41:28.292Z,1007.06
2018-12-14T02:42:28.302Z,1007.08
2018-12-14T02:43:28.324Z,1007.08
2018-12-14T02:44:28.361Z,1007.08
2018-12-14T02:45:28.354Z,1007.05
2018-12-14T02:46:28.358Z,1007.01
2018-12-14T02:47:28.369Z,1007.02
2018-12-14T02:48:28.390Z,1007.06
2018-12-14T02:49:28.395Z,1007.01
2018-12-14T02:50:28.419Z,1007.01
2018-12-14T02:51:28.423Z,1007.01
2018-12-14T02:52:28.441Z,1006.99
2018-12-14T02:53:28.449Z,1006.95
2018-12-14T02:54:28.468Z,1006.98
2018-12-14T02:55:28.484Z,1006.94
2018-12-14T02:56:28.489Z,1006.91
2018-12-14T02:57:28.502Z,1006.92
2018-12-14T02:58:28.511Z,1006.91
2018-12-14T02:59:28.534Z,1006.95
2018-12-14T03:00:28.546Z,1006.92
2018-12-14T03:01:28.558Z,1006.94
2018-12-14T03:02:28.592Z,1006.97
2018-12-14T03:03:28.585Z,1006.92
2018-12-14T03:04:28.600Z,1006.90
2018-12-14T03:05:28.606Z,1006.94
2018-12-14T03:06:28.621Z,1006.94
2018-12-14T03:07:28.644Z,1006.94
2018-12-14T03:08:28.653Z,1006.94
2018-12-14T03:09:28.789Z,1006.94
2018-12-14T03:10:28.682Z,1006.92
2018-12-14T03:11:28.692Z,1006.91
2018-12-14T03:12:28.703Z,1006.93
2018-12-14T03:13:28.725Z,1006.94
2018-12-14T03:14:28.721Z,1006.90
2018-12-14T03:15:28.750Z,1006.94
2018-12-14T03:16:28.755Z,1006.91
2018-12-14T03:17:28.787Z,1006.87
2018-12-14T03:18:28.780Z,1006.91
2018-12-14T03:19:28.794Z,1006.94
2018-12-14T03:20:28.813Z,1006.90
2018-12-14T03:21:28.817Z,1006.95
2018-12-14T03:22:28.830Z,1006.94
2018-12-14T03:23:28.856Z,1006.91
2018-12-14T03:24:28.867Z,1006.93
2018-12-14T03:25:28.878Z,1006.94
2018-12-14T03:26:28.888Z,1006.92
2018-12-14T03:27:28.898Z,1006.95
2018-12-14T03:28:28.908Z,1006.92
2018-12-14T03:29:28.922Z,1006.92
2018-12-14T03:30:28.938Z,1006.86
2018-12-14T03:31:28.954Z,1006.89
2018-12-14T03:32:28.978Z,1006.92
2018-12-14T03:33:28.975Z,1006.90
2018-12-14T03:34:28.991Z,1006.90
2018-12-14T03:35:29.012Z,1006.87
2018-12-14T03:36:29.022Z,1006.90
2018-12-14T03:37:29.026Z,1006.89
2018-12-14T03:38:29.040Z,1006.88
2018-12-14T03:39:29.057Z,1006.89
2018-12-14T03:40:29.072Z,1006.89
2018-12-14T03:41:29.082Z,1006.90
2018-12-14T03:42:34.127Z,1006.86
2018-12-14T03:43:29.113Z,1006.93
2018-12-14T03:44:29.123Z,1006.89
2018-12-14T03:45:29.138Z,1006.93
2018-12-14T03:46:29.146Z,1006.91
2018-12-14T03:47:29.157Z,1006.88
2018-12-14T03:48:29.169Z,1006.95
2018-12-14T03:49:29.201Z,1006.95
2018-12-14T03:50:29.200Z,1006.94
2018-12-14T03:51:29.217Z,1006.90
2018-12-14T03:52:29.226Z,1006.94
2018-12-14T03:53:29.238Z,1006.95
2018-12-14T03:54:29.257Z,1006.94
2018-12-14T03:55:29.266Z,1006.94
2018-12-14T03:56:29.275Z,1006.96
2018-12-14T03:57:29.292Z,1006.94
2018-12-14T03:58:29.302Z,1006.99
2018-12-14T03:59:29.343Z,1006.97
2018-12-14T04:00:29.332Z,1006.97
2018-12-14T04:01:29.341Z,1007.00
2018-12-14T04:02:29.359Z,1007.00
2018-12-14T04:03:29.383Z,1006.99
2018-12-14T04:04:29.389Z,1007.00
2018-12-14T04:05:29.393Z,1006.99
2018-12-14T04:06:29.424Z,1006.97
2018-12-14T04:07:29.549Z,1006.97
2018-12-14T04:08:29.436Z,1006.95
2018-12-14T04:09:29.455Z,1006.94
2018-12-14T04:10:29.476Z,1006.96
2018-12-14T04:11:29.498Z,1006.94
2018-12-14T04:12:29.487Z,1006.97
2018-12-14T04:13:29.500Z,1006.97
2018-12-14T04:14:29.510Z,1006.93
2018-12-14T04:15:29.559Z,1006.91
2018-12-14T04:16:29.537Z,1006.91
2018-12-14T04:17:29.547Z,1006.94
2018-12-14T04:18:29.569Z,1006.93
2018-12-14T04:19:29.579Z,1006.89
2018-12-14T04:20:29.591Z,1006.93
2018-12-14T04:21:29.601Z,1006.89
2018-12-14T04:22:29.621Z,1006.92
2018-12-14T04:23:29.628Z,1006.94
2018-12-14T04:24:29.643Z,1006.91
2018-12-14T04:25:29.657Z,1006.95
2018-12-14T04:26:29.688Z,1006.91
2018-12-14T04:27:29.681Z,1006.95
2018-12-14T04:28:29.695Z,1006.93
2018-12-14T04:29:29.764Z,1006.95
2018-12-14T04:30:29.723Z,1006.93
2018-12-14T04:31:29.741Z,1006.96
2018-12-14T04:32:29.747Z,1007.05
2018-12-14T04:33:29.757Z,1006.99
2018-12-14T04:34:29.771Z,1007.02
2018-12-14T04:35:29.789Z,1007.02
2018-12-14T04:36:29.800Z,1006.98
2018-12-14T04:37:29.821Z,1006.99
2018-12-14T04:38:29.827Z,1007.01
2018-12-14T04:39:31.216Z,1006.99
2018-12-14T04:40:29.939Z,1007.03
2018-12-14T04:41:29.861Z,1007.03
2018-12-14T04:42:29.873Z,1007.00
2018-12-14T04:43:29.894Z,1007.00
2018-12-14T04:44:29.910Z,1006.98
2018-12-14T04:45:29.919Z,1006.97
2018-12-14T04:46:29.931Z,1007.02
2018-12-14T04:47:29.941Z,1006.98
2018-12-14T04:48:29.969Z,1007.05
2018-12-14T04:49:29.976Z,1006.98
2018-12-14T04:50:29.980Z,1006.97
2018-12-14T04:51:29.999Z,1006.97
2018-12-14T04:52:30.007Z,1007.00
2018-12-14T04:53:30.023Z,1006.95
2018-12-14T04:54:30.031Z,1006.97
2018-12-14T04:55:30.058Z,1006.99
2018-12-14T04:56:30.059Z,1006.94
2018-12-14T04:57:30.072Z,1006.96
2018-12-14T04:58:30.094Z,1006.95
2018-12-14T04:59:30.099Z,1006.93
2018-12-14T05:00:30.108Z,1006.96
2018-12-14T05:01:30.123Z,1006.99
2018-12-14T05:02:30.139Z,1006.94
2018-12-14T05:03:30.148Z,1006.90
2018-12-14T05:04:30.164Z,1006.93
2018-12-14T05:05:30.187Z,1006.91
2018-12-14T05:06:31.537Z,1006.91
2018-12-14T05:07:30.212Z,1006.95
2018-12-14T05:08:30.227Z,1006.95
2018-12-14T05:09:30.228Z,1006.97
2018-12-14T05:10:30.244Z,1006.96
2018-12-14T05:11:30.263Z,1006.96
2018-12-14T05:12:30.275Z,1006.98
2018-12-14T05:13:30.278Z,1006.98
2018-12-14T05:14:30.299Z,1006.96
2018-12-14T05:15:30.305Z,1007.00
2018-12-14T05:16:30.340Z,1006.95
2018-12-14T05:17:30.338Z,1006.99
2018-12-14T05:18:30.347Z,1006.96
2018-12-14T05:19:30.360Z,1007.00
2018-12-14T05:20:30.383Z,1007.03
2018-12-14T05:21:30.394Z,1006.97
2018-12-14T05:22:30.400Z,1006.96
2018-12-14T05:23:30.418Z,1006.96
2018-12-14T05:24:30.429Z,1006.95
2018-12-14T05:25:30.454Z,1006.98
2018-12-14T05:26:30.456Z,1006.97
2018-12-14T05:27:30.466Z,1006.99
2018-12-14T05:28:30.476Z,1006.94
2018-12-14T05:29:30.498Z,1006.98
2018-12-14T05:30:30.515Z,1006.96
2018-12-14T05:31:30.526Z,1007.00
2018-12-14T05:32:30.530Z,1006.98
2018-12-14T05:33:30.538Z,1006.93
2018-12-14T05:34:30.568Z,1006.98
2018-12-14T05:35:30.566Z,1006.94
2018-12-14T05:36:30.587Z,1006.98
2018-12-14T05:37:30.597Z,1006.93
2018-12-14T05:38:30.606Z,1006.94
2018-12-14T05:39:30.626Z,1006.93
2018-12-14T05:40:30.651Z,1006.93
2018-12-14T05:41:31.332Z,1006.95
2018-12-14T05:42:30.661Z,1007.01
2018-12-14T05:43:30.684Z,1006.99
2018-12-14T05:44:30.688Z,1006.94
2018-12-14T05:45:30.703Z,1006.97
2018-12-14T05:46:30.716Z,1006.91
2018-12-14T05:47:30.768Z,1006.88
2018-12-14T05:48:30.736Z,1006.92
2018-12-14T05:49:30.752Z,1006.94
2018-12-14T05:50:30.786Z,1006.91
2018-12-14T05:51:30.784Z,1006.95
2018-12-14T05:52:30.796Z,1006.96
2018-12-14T05:53:30.804Z,1006.93
2018-12-14T05:54:30.841Z,1006.95
2018-12-14T05:55:30.836Z,1006.90
2018-12-14T05:56:30.851Z,1006.92
2018-12-14T05:57:30.858Z,1006.90
2018-12-14T05:58:30.878Z,1006.96
2018-12-14T05:59:30.905Z,1006.95
2018-12-14T06:00:30.904Z,1006.97
2018-12-14T06:01:30.912Z,1006.99
2018-12-14T06:02:30.939Z,1006.97
2018-12-14T06:03:30.935Z,1007.05
2018-12-14T06:04:30.946Z,1007.03
2018-12-14T06:05:30.967Z,1007.04
2018-12-14T06:06:30.976Z,1007.04
2018-12-14T06:07:30.997Z,1007.03
2018-12-14T06:08:31.006Z,1007.04
2018-12-14T06:09:31.018Z,1007.07
2018-12-14T06:10:31.039Z,1007.07
2018-12-14T06:11:31.047Z,1007.10
2018-12-14T06:12:31.071Z,1007.12
2018-12-14T06:13:31.072Z,1007.12
2018-12-14T06:14:31.080Z,1007.17
2018-12-14T06:15:31.098Z,1007.16
2018-12-14T06:16:31.120Z,1007.18
2018-12-14T06:17:31.125Z,1007.20
2018-12-14T06:18:31.128Z,1007.22
2018-12-14T06:19:31.152Z,1007.18
2018-12-14T06:20:31.166Z,1007.23
2018-12-14T06:21:31.182Z,1007.21
2018-12-14T06:22:31.352Z,1007.25
2018-12-14T06:23:31.206Z,1007.29
2018-12-14T06:24:31.218Z,1007.29
2018-12-14T06:25:31.250Z,1007.30
2018-12-14T06:26:31.242Z,1007.27
2018-12-14T06:27:31.260Z,1007.32
2018-12-14T06:28:31.263Z,1007.33
2018-12-14T06:29:31.279Z,1007.36
2018-12-14T06:30:31.297Z,1007.39
2018-12-14T06:31:31.315Z,1007.38
2018-12-14T06:32:31.316Z,1007.41
2018-12-14T06:33:31.326Z,1007.40
2018-12-14T06:34:31.343Z,1007.42
2018-12-14T06:35:31.371Z,1007.36
2018-12-14T06:36:31.379Z,1007.43
2018-12-14T06:37:31.520Z,1007.40
2018-12-14T06:38:31.396Z,1007.41
2018-12-14T06:39:31.416Z,1007.38
2018-12-14T06:40:31.432Z,1007.42
2018-12-14T06:41:31.443Z,1007.40
2018-12-14T06:42:31.451Z,1007.41
2018-12-14T06:43:31.462Z,1007.41
2018-12-14T06:44:31.474Z,1007.41
2018-12-14T06:45:31.552Z,1007.46
2018-12-14T06:46:31.499Z,1007.41
2018-12-14T06:47:31.517Z,1007.43
2018-12-14T06:48:31.545Z,1007.41
2018-12-14T06:49:31.544Z,1007.46
2018-12-14T06:50:31.551Z,1007.48
2018-12-14T06:51:31.580Z,1007.50
2018-12-14T06:52:31.597Z,1007.51
2018-12-14T06:53:31.686Z,1007.46
2018-12-14T06:54:31.603Z,1007.52
2018-12-14T06:55:31.685Z,1007.53
2018-12-14T06:56:31.634Z,1007.59
2018-12-14T06:57:31.709Z,1007.53
2018-12-14T06:58:31.655Z,1007.54
2018-12-14T06:59:31.665Z,1007.57
2018-12-14T07:00:31.680Z,1007.57
2018-12-14T07:01:31.695Z,1007.59
2018-12-14T07:02:31.705Z,1007.61
2018-12-14T07:03:31.732Z,1007.63
2018-12-14T07:04:31.735Z,1007.61
2018-12-14T07:05:31.766Z,1007.60
2018-12-14T07:06:31.764Z,1007.59
2018-12-14T07:07:31.785Z,1007.62
2018-12-14T07:08:31.787Z,1007.61
2018-12-14T07:09:31.797Z,1007.65
2018-12-14T07:10:31.830Z,1007.71
2018-12-14T07:11:31.833Z,1007.64
2018-12-14T07:12:31.844Z,1007.67
2018-12-14T07:13:31.849Z,1007.66
2018-12-14T07:14:31.860Z,1007.71
2018-12-14T07:15:31.876Z,1007.72
2018-12-14T07:16:31.899Z,1007.73
2018-12-14T07:17:31.922Z,1007.73
2018-12-14T07:18:31.917Z,1007.75
2018-12-14T07:19:31.952Z,1007.85
2018-12-14T07:20:31.942Z,1007.75
2018-12-14T07:21:31.959Z,1007.79
2018-12-14T07:22:31.969Z,1007.80
2018-12-14T07:23:31.991Z,1007.77
2018-12-14T07:24:32.005Z,1007.80
2018-12-14T07:25:32.030Z,1007.81
2018-12-14T07:26:32.040Z,1007.85
2018-12-14T07:27:32.035Z,1007.83
2018-12-14T07:28:32.045Z,1007.81
2018-12-14T07:29:32.078Z,1007.78
2018-12-14T07:30:32.071Z,1007.81
2018-12-14T07:31:32.083Z,1007.81
2018-12-14T07:32:32.096Z,1007.81
2018-12-14T07:33:32.110Z,1007.85
2018-12-14T07:34:32.130Z,1007.87
2018-12-14T07:35:32.143Z,1007.87
2018-12-14T07:36:32.149Z,1007.87
2018-12-14T07:37:32.178Z,1007.90
2018-12-14T07:38:32.185Z,1007.93
2018-12-14T07:39:32.187Z,1007.92
2018-12-14T07:40:32.231Z,1007.92
2018-12-14T07:41:32.216Z,1007.96
2018-12-14T07:42:32.233Z,1007.96
2018-12-14T07:43:32.242Z,1007.98
2018-12-14T07:44:32.407Z,1008.01
2018-12-14T07:45:32.265Z,1008.00
2018-12-14T07:46:32.288Z,1008.05
2018-12-14T07:47:32.291Z,1008.05
2018-12-14T07:48:32.314Z,1008.04
2018-12-14T07:49:32.316Z,1008.10
2018-12-14T07:50:32.328Z,1008.09
2018-12-14T07:51:32.342Z,1008.11
2018-12-14T07:52:32.378Z,1008.21
2018-12-14T07:53:32.367Z,1008.20
2018-12-14T07:54:32.379Z,1008.17
2018-12-14T07:55:32.398Z,1008.18
2018-12-14T07:56:32.405Z,1008.20
2018-12-14T07:57:32.592Z,1008.21
2018-12-14T07:58:32.439Z,1008.29
2018-12-14T07:59:32.485Z,1008.32
2018-12-14T08:00:32.458Z,1008.32
2018-12-14T08:01:32.467Z,1008.38
2018-12-14T08:02:32.493Z,1008.39
2018-12-14T08:03:32.494Z,1008.40
2018-12-14T08:04:32.510Z,1008.43
2018-12-14T08:05:32.516Z,1008.45
2018-12-14T08:06:32.538Z,1008.46
2018-12-14T08:07:32.544Z,1008.44
2018-12-14T08:08:32.561Z,1008.46
2018-12-14T08:09:32.568Z,1008.44
2018-12-14T08:10:32.674Z,1008.43
2018-12-14T08:11:32.630Z,1008.39
2018-12-14T08:12:32.710Z,1008.41
2018-12-14T08:13:34.918Z,1008.43
2018-12-14T08:14:32.633Z,1008.43
2018-12-14T08:15:32.723Z,1008.42
2018-12-14T08:16:32.718Z,1008.45
2018-12-14T08:17:32.733Z,1008.48
2018-12-14T08:18:32.726Z,1008.51
2018-12-14T08:19:32.871Z,1008.47
2018-12-14T08:20:32.788Z,1008.53
2018-12-14T08:21:32.737Z,1008.52
2018-12-14T08:22:32.793Z,1008.50
2018-12-14T08:23:32.747Z,1008.57
2018-12-14T08:24:32.834Z,1008.57
2018-12-14T08:25:32.889Z,1008.50
2018-12-14T08:26:32.810Z,1008.54
2018-12-14T08:27:32.926Z,1008.59
2018-12-14T08:28:32.942Z,1008.56
2018-12-14T08:29:32.922Z,1008.61
2018-12-14T08:30:32.842Z,1008.59
2018-12-14T08:31:32.889Z,1008.62
2018-12-14T08:32:32.994Z,1008.59
2018-12-14T08:33:32.915Z,1008.56
2018-12-14T08:34:32.951Z,1008.60
2018-12-14T08:35:33.030Z,1008.60
2018-12-14T08:36:32.964Z,1008.62
2018-12-14T08:37:32.924Z,1008.62
2018-12-14T08:38:32.937Z,1008.62
2018-12-14T08:39:32.947Z,1008.60
2018-12-14T08:40:32.976Z,1008.57
2018-12-14T08:41:33.000Z,1008.58
2018-12-14T08:42:33.096Z,1008.63
2018-12-14T08:43:33.007Z,1008.65
2018-12-14T08:44:33.114Z,1008.66
2018-12-14T08:45:33.075Z,1008.69
2018-12-14T08:46:33.092Z,1008.65
2018-12-14T08:47:33.225Z,1008.70
2018-12-14T08:48:33.126Z,1008.67
2018-12-14T08:49:33.185Z,1008.69
2018-12-14T08:50:33.169Z,1008.66
2018-12-14T08:51:33.169Z,1008.71
2018-12-14T08:52:33.343Z,1008.76
2018-12-14T08:53:33.186Z,1008.74
2018-12-14T08:54:33.211Z,1008.73
2018-12-14T08:55:33.168Z,1008.76
2018-12-14T08:56:33.163Z,1008.78
2018-12-14T08:57:33.187Z,1008.86
2018-12-14T08:58:33.192Z,1008.81
2018-12-14T08:59:33.223Z,1008.84
2018-12-14T09:00:33.214Z,1008.88
2018-12-14T09:01:33.226Z,1008.90
2018-12-14T09:02:33.238Z,1008.94
2018-12-14T09:03:33.266Z,1008.95
2018-12-14T09:04:33.408Z,1008.93
2018-12-14T09:05:33.299Z,1008.95
2018-12-14T09:06:33.409Z,1008.95
2018-12-14T09:07:33.302Z,1008.96
2018-12-14T09:08:33.328Z,1009.02
2018-12-14T09:09:33.355Z,1008.98
2018-12-14T09:10:33.394Z,1008.98
2018-12-14T09:11:33.423Z,1008.97
2018-12-14T09:12:33.591Z,1008.99
2018-12-14T09:13:33.416Z,1009.03
2018-12-14T09:14:33.506Z,1009.05
2018-12-14T09:15:33.409Z,1009.05
2018-12-14T09:16:33.562Z,1009.08
2018-12-14T09:17:33.515Z,1009.09
2018-12-14T09:18:33.716Z,1009.08
2018-12-14T09:19:33.457Z,1009.06
2018-12-14T09:20:33.616Z,1009.05
2018-12-14T09:21:33.627Z,1009.06
2018-12-14T09:22:33.539Z,1009.07
2018-12-14T09:23:33.522Z,1009.07
2018-12-14T09:24:33.619Z,1009.09
2018-12-14T09:25:33.531Z,1009.03
2018-12-14T09:26:33.589Z,1009.07
2018-12-14T09:27:33.563Z,1009.12
2018-12-14T09:28:33.576Z,1009.06
2018-12-14T09:29:33.598Z,1009.03
2018-12-14T09:30:33.611Z,1009.06
2018-12-14T09:31:33.607Z,1009.09
2018-12-14T09:32:33.627Z,1009.06
2018-12-14T09:33:33.815Z,1009.08
2018-12-14T09:34:33.711Z,1009.05
2018-12-14T09:35:33.820Z,1009.04
2018-12-14T09:36:33.894Z,1009.03
2018-12-14T09:37:33.849Z,1009.09
2018-12-14T09:38:33.703Z,1009.04
2018-12-14T09:39:33.723Z,1009.03
2018-12-14T09:40:33.736Z,1009.07
2018-12-14T09:41:33.750Z,1009.08
2018-12-14T09:42:33.756Z,1009.08
2018-12-14T09:43:33.766Z,1009.10
2018-12-14T09:44:33.795Z,1009.11
2018-12-14T09:45:33.827Z,1009.09
2018-12-14T09:46:37.106Z,1009.10
2018-12-14T09:47:33.870Z,1009.12
2018-12-14T09:48:33.875Z,1009.10
2018-12-14T09:49:33.847Z,1009.14
2018-12-14T09:50:33.937Z,1009.17
2018-12-14T09:51:34.076Z,1009.17
2018-12-14T09:52:33.998Z,1009.19
2018-12-14T09:53:34.014Z,1009.18
2018-12-14T09:54:34.003Z,1009.20
2018-12-14T09:55:33.936Z,1009.18
2018-12-14T09:56:33.937Z,1009.18
2018-12-14T09:57:33.954Z,1009.17
2018-12-14T09:58:33.969Z,1009.15
2018-12-14T09:59:33.972Z,1009.14
2018-12-14T10:00:33.987Z,1009.11
2018-12-14T10:01:34.004Z,1009.14
2018-12-14T10:02:34.014Z,1009.17
2018-12-14T10:03:34.036Z,1009.19
2018-12-14T10:04:34.072Z,1009.19
2018-12-14T10:05:34.060Z,1009.17
2018-12-14T10:06:34.101Z,1009.22
2018-12-14T10:07:34.217Z,1009.16
2018-12-14T10:08:34.144Z,1009.14
2018-12-14T10:09:34.109Z,1009.15
2018-12-14T10:10:34.221Z,1009.13
2018-12-14T10:11:34.127Z,1009.10
2018-12-14T10:12:34.171Z,1009.10
2018-12-14T10:13:34.186Z,1009.13
2018-12-14T10:14:34.341Z,1009.12
2018-12-14T10:15:34.248Z,1009.15
2018-12-14T10:16:34.196Z,1009.07
2018-12-14T10:17:34.224Z,1009.09
2018-12-14T10:18:34.225Z,1009.11
2018-12-14T10:19:34.234Z,1009.10
2018-12-14T10:20:34.336Z,1009.10
2018-12-14T10:21:34.262Z,1009.13
2018-12-14T10:22:34.390Z,1009.11
2018-12-14T10:23:34.381Z,1009.08
2018-12-14T10:24:34.429Z,1009.09
2018-12-14T10:25:34.449Z,1009.10
2018-12-14T10:26:34.333Z,1009.12
2018-12-14T10:27:34.467Z,1009.12
2018-12-14T10:28:34.389Z,1009.08
2018-12-14T10:29:34.511Z,1009.08
2018-12-14T10:30:34.390Z,1009.05
2018-12-14T10:31:34.423Z,1009.08
2018-12-14T10:32:34.418Z,1009.08
2018-12-14T10:33:34.421Z,1009.06
2018-12-14T10:34:34.449Z,1009.02
2018-12-14T10:35:34.474Z,1009.02
2018-12-14T10:36:34.461Z,1009.06
2018-12-14T10:37:34.520Z,1009.02
2018-12-14T10:38:34.527Z,1009.05
2018-12-14T10:39:34.623Z,1008.99
2018-12-14T10:40:34.598Z,1008.94
2018-12-14T10:41:34.630Z,1008.94
2018-12-14T10:42:34.639Z,1008.98
2018-12-14T10:43:34.759Z,1008.93
2018-12-14T10:44:34.712Z,1008.91
2018-12-14T10:45:34.714Z,1008.90
2018-12-14T10:46:34.771Z,1008.88
2018-12-14T10:47:34.606Z,1008.90
2018-12-14T10:48:34.660Z,1008.83
2018-12-14T10:49:34.631Z,1008.94
2018-12-14T10:50:39.619Z,1008.84
2018-12-14T10:51:34.660Z,1008.83
2018-12-14T10:52:34.669Z,1008.82
2018-12-14T10:53:34.689Z,1008.81
2018-12-14T10:54:34.719Z,1008.75
2018-12-14T10:55:34.711Z,1008.79
2018-12-14T10:56:34.726Z,1008.82
2018-12-14T10:57:34.740Z,1008.79
2018-12-14T10:58:34.771Z,1008.80
2018-12-14T10:59:34.771Z,1008.80
2018-12-14T11:00:34.783Z,1008.90
2018-12-14T11:01:34.799Z,1008.82
2018-12-14T11:02:34.804Z,1008.86
2018-12-14T11:03:34.823Z,1008.79
2018-12-14T11:04:34.832Z,1008.83
2018-12-14T11:05:34.852Z,1008.85
2018-12-14T11:06:34.861Z,1008.85
2018-12-14T11:07:34.872Z,1008.83
2018-12-14T11:08:34.888Z,1008.85
2018-12-14T11:09:34.908Z,1008.86
2018-12-14T11:10:34.910Z,1008.86
2018-12-14T11:11:34.934Z,1008.84
2018-12-14T11:12:34.941Z,1008.81
2018-12-14T11:13:34.950Z,1008.81
2018-12-14T11:14:34.968Z,1008.82
2018-12-14T11:15:35.003Z,1008.80
2018-12-14T11:16:34.996Z,1008.82
2018-12-14T11:17:35.009Z,1008.84
2018-12-14T11:18:35.017Z,1008.84
2018-12-14T11:19:35.033Z,1008.88
2018-12-14T11:20:35.048Z,1008.87
2018-12-14T11:21:35.075Z,1008.90
2018-12-14T11:22:35.180Z,1008.87
2018-12-14T11:23:35.092Z,1008.87
2018-12-14T11:24:35.107Z,1008.85
2018-12-14T11:25:35.125Z,1008.90
2018-12-14T11:26:35.290Z,1008.91
2018-12-14T11:27:35.361Z,1008.93
2018-12-14T11:28:35.308Z,1008.93
2018-12-14T11:29:35.239Z,1008.96
2018-12-14T11:30:35.333Z,1008.92
2018-12-14T11:31:35.275Z,1008.95
2018-12-14T11:32:35.267Z,1008.96
2018-12-14T11:33:35.370Z,1008.99
2018-12-14T11:34:35.279Z,1008.99
2018-12-14T11:35:35.253Z,1008.98
2018-12-14T11:36:35.265Z,1008.99
2018-12-14T11:37:35.289Z,1008.95
2018-12-14T11:38:35.293Z,1008.87
2018-12-14T11:39:35.317Z,1008.91
2018-12-14T11:40:35.319Z,1008.90
2018-12-14T11:41:35.338Z,1008.93
2018-12-14T11:42:35.348Z,1008.87
2018-12-14T11:43:35.360Z,1008.89
2018-12-14T11:44:35.377Z,1008.91
2018-12-14T11:45:35.387Z,1008.87
2018-12-14T11:46:35.399Z,1008.86
2018-12-14T11:47:35.415Z,1008.82
2018-12-14T11:48:35.428Z,1008.82
2018-12-14T11:49:35.441Z,1008.83
2018-12-14T11:50:35.456Z,1008.80
2018-12-14T11:51:35.468Z,1008.81
2018-12-14T11:52:35.485Z,1008.80
2018-12-14T11:53:35.493Z,1008.79
2018-12-14T11:54:35.516Z,1008.77
2018-12-14T11:55:35.526Z,1008.79
2018-12-14T11:56:35.534Z,1008.82
2018-12-14T11:57:35.555Z,1008.74
2018-12-14T11:58:35.565Z,1008.71
2018-12-14T11:59:35.596Z,1008.70
2018-12-14T12:00:35.611Z,1008.71
2018-12-14T12:01:35.607Z,1008.68
2018-12-14T12:02:35.618Z,1008.65
2018-12-14T12:03:35.632Z,1008.64
2018-12-14T12:04:35.657Z,1008.70
2018-12-14T12:05:35.663Z,1008.69